sensor_id;sensor_type;location;lat;lon;timestamp;P1;durP1;ratioP1;P2;durP2;ratioP2
78860;SDS011;68211;45.774;15.892;2023-04-24T00:02:06;3.78;;;2.72;;
78860;SDS011;68211;45.774;15.892;2023-04-24T00:04:33;4.65;;;2.50;;
78860;SDS011;68211;45.774;15.892;2023-04-24T00:06:59;2.88;;;2.67;;
78860;SDS011;68211;45.774;15.892;2023-04-24T00:09:25;2.75;;;2.45;;
78860;SDS011;68211;45.774;15.892;2023-04-24T00:11:52;2.67;;;2.47;;
78860;SDS011;68211;45.774;15.892;2023-04-24T00:14:18;2.42;;;2.30;;
78860;SDS011;68211;45.774;15.892;2023-04-24T00:16:45;2.60;;;2.45;;
78860;SDS011;68211;45.774;15.892;2023-04-24T00:19:13;6.07;;;2.50;;
78860;SDS011;68211;45.774;15.892;2023-04-24T00:21:39;2.58;;;2.38;;
78860;SDS011;68211;45.774;15.892;2023-04-24T00:24:06;2.90;;;2.70;;
78860;SDS011;68211;45.774;15.892;2023-04-24T00:26:32;9.38;;;2.80;;
78860;SDS011;68211;45.774;15.892;2023-04-24T00:28:58;4.43;;;2.70;;
78860;SDS011;68211;45.774;15.892;2023-04-24T00:31:25;3.17;;;2.88;;
78860;SDS011;68211;45.774;15.892;2023-04-24T00:33:51;3.20;;;3.00;;
78860;SDS011;68211;45.774;15.892;2023-04-24T00:36:19;2.72;;;2.53;;
78860;SDS011;68211;45.774;15.892;2023-04-24T00:38:46;3.90;;;2.90;;
78860;SDS011;68211;45.774;15.892;2023-04-24T00:41:12;3.03;;;2.80;;
78860;SDS011;68211;45.774;15.892;2023-04-24T00:43:39;3.45;;;2.88;;
78860;SDS011;68211;45.774;15.892;2023-04-24T00:46:05;6.68;;;3.00;;
78860;SDS011;68211;45.774;15.892;2023-04-24T00:48:32;3.25;;;3.00;;
78860;SDS011;68211;45.774;15.892;2023-04-24T00:50:58;3.28;;;2.97;;
78860;SDS011;68211;45.774;15.892;2023-04-24T00:53:26;3.50;;;3.20;;
78860;SDS011;68211;45.774;15.892;2023-04-24T00:55:53;5.82;;;3.10;;
78860;SDS011;68211;45.774;15.892;2023-04-24T00:58:19;3.50;;;3.20;;
78860;SDS011;68211;45.774;15.892;2023-04-24T01:00:46;3.55;;;3.25;;
78860;SDS011;68211;45.774;15.892;2023-04-24T01:03:12;3.88;;;3.03;;
78860;SDS011;68211;45.774;15.892;2023-04-24T01:05:39;3.88;;;3.20;;
78860;SDS011;68211;45.774;15.892;2023-04-24T01:08:06;3.20;;;2.85;;
78860;SDS011;68211;45.774;15.892;2023-04-24T01:10:34;4.90;;;3.50;;
78860;SDS011;68211;45.774;15.892;2023-04-24T01:13:01;3.47;;;3.17;;
78860;SDS011;68211;45.774;15.892;2023-04-24T01:15:27;4.38;;;3.05;;
78860;SDS011;68211;45.774;15.892;2023-04-24T01:17:54;4.30;;;3.15;;
78860;SDS011;68211;45.774;15.892;2023-04-24T01:20:20;3.97;;;3.20;;
78860;SDS011;68211;45.774;15.892;2023-04-24T01:22:48;3.30;;;3.00;;
78860;SDS011;68211;45.774;15.892;2023-04-24T01:25:14;4.85;;;3.22;;
78860;SDS011;68211;45.774;15.892;2023-04-24T01:27:41;3.38;;;3.17;;
78860;SDS011;68211;45.774;15.892;2023-04-24T01:30:08;3.60;;;3.30;;
78860;SDS011;68211;45.774;15.892;2023-04-24T01:32:34;4.75;;;3.28;;
78860;SDS011;68211;45.774;15.892;2023-04-24T01:35:01;3.58;;;3.20;;
78860;SDS011;68211;45.774;15.892;2023-04-24T01:37:28;3.55;;;3.22;;
78860;SDS011;68211;45.774;15.892;2023-04-24T01:39:56;5.93;;;3.42;;
78860;SDS011;68211;45.774;15.892;2023-04-24T01:42:22;3.47;;;3.17;;
78860;SDS011;68211;45.774;15.892;2023-04-24T01:44:49;4.13;;;3.20;;
78860;SDS011;68211;45.774;15.892;2023-04-24T01:47:15;5.25;;;3.60;;
78860;SDS011;68211;45.774;15.892;2023-04-24T01:49:41;4.47;;;3.53;;
78860;SDS011;68211;45.774;15.892;2023-04-24T01:52:09;3.80;;;3.28;;
78860;SDS011;68211;45.774;15.892;2023-04-24T01:54:35;4.93;;;3.55;;
78860;SDS011;68211;45.774;15.892;2023-04-24T01:57:03;4.63;;;3.40;;
78860;SDS011;68211;45.774;15.892;2023-04-24T01:59:29;4.82;;;3.70;;
78860;SDS011;68211;45.774;15.892;2023-04-24T02:01:56;3.70;;;3.42;;
78860;SDS011;68211;45.774;15.892;2023-04-24T02:04:22;6.90;;;3.72;;
78860;SDS011;68211;45.774;15.892;2023-04-24T02:06:48;4.75;;;3.65;;
78860;SDS011;68211;45.774;15.892;2023-04-24T02:09:15;4.93;;;3.55;;
78860;SDS011;68211;45.774;15.892;2023-04-24T02:11:41;8.15;;;3.88;;
78860;SDS011;68211;45.774;15.892;2023-04-24T02:14:09;4.00;;;3.60;;
78860;SDS011;68211;45.774;15.892;2023-04-24T02:16:35;4.65;;;3.78;;
78860;SDS011;68211;45.774;15.892;2023-04-24T02:19:02;5.85;;;3.88;;
78860;SDS011;68211;45.774;15.892;2023-04-24T02:21:29;4.35;;;3.83;;
78860;SDS011;68211;45.774;15.892;2023-04-24T02:23:55;7.53;;;3.83;;
78860;SDS011;68211;45.774;15.892;2023-04-24T02:26:21;4.18;;;3.80;;
78860;SDS011;68211;45.774;15.892;2023-04-24T02:28:48;4.03;;;3.70;;
78860;SDS011;68211;45.774;15.892;2023-04-24T02:31:16;3.70;;;3.40;;
78860;SDS011;68211;45.774;15.892;2023-04-24T02:33:42;4.65;;;3.60;;
78860;SDS011;68211;45.774;15.892;2023-04-24T02:36:08;4.20;;;3.58;;
78860;SDS011;68211;45.774;15.892;2023-04-24T02:38:35;4.85;;;3.75;;
78860;SDS011;68211;45.774;15.892;2023-04-24T02:41:01;5.28;;;3.67;;
78860;SDS011;68211;45.774;15.892;2023-04-24T02:43:28;4.07;;;3.40;;
78860;SDS011;68211;45.774;15.892;2023-04-24T02:45:54;4.75;;;3.70;;
78860;SDS011;68211;45.774;15.892;2023-04-24T02:48:22;3.83;;;3.53;;
78860;SDS011;68211;45.774;15.892;2023-04-24T02:50:48;3.75;;;3.38;;
78860;SDS011;68211;45.774;15.892;2023-04-24T02:53:15;3.92;;;3.63;;
78860;SDS011;68211;45.774;15.892;2023-04-24T02:55:41;3.80;;;3.45;;
78860;SDS011;68211;45.774;15.892;2023-04-24T02:58:07;3.60;;;3.30;;
78860;SDS011;68211;45.774;15.892;2023-04-24T03:00:34;3.58;;;3.30;;
78860;SDS011;68211;45.774;15.892;2023-04-24T03:03:00;5.03;;;3.60;;
78860;SDS011;68211;45.774;15.892;2023-04-24T03:05:29;6.00;;;3.60;;
78860;SDS011;68211;45.774;15.892;2023-04-24T03:07:55;5.10;;;3.45;;
78860;SDS011;68211;45.774;15.892;2023-04-24T03:10:21;3.60;;;3.30;;
78860;SDS011;68211;45.774;15.892;2023-04-24T03:12:48;5.68;;;3.40;;
78860;SDS011;68211;45.774;15.892;2023-04-24T03:15:14;3.83;;;3.53;;
78860;SDS011;68211;45.774;15.892;2023-04-24T03:17:40;5.18;;;3.53;;
78860;SDS011;68211;45.774;15.892;2023-04-24T03:20:07;4.88;;;3.38;;
78860;SDS011;68211;45.774;15.892;2023-04-24T03:22:35;3.85;;;3.40;;
78860;SDS011;68211;45.774;15.892;2023-04-24T03:25:02;3.90;;;3.60;;
78860;SDS011;68211;45.774;15.892;2023-04-24T03:27:28;4.22;;;3.50;;
78860;SDS011;68211;45.774;15.892;2023-04-24T03:29:55;3.85;;;3.55;;
78860;SDS011;68211;45.774;15.892;2023-04-24T03:32:21;3.60;;;3.28;;
78860;SDS011;68211;45.774;15.892;2023-04-24T03:34:48;4.18;;;3.45;;
78860;SDS011;68211;45.774;15.892;2023-04-24T03:37:14;4.32;;;3.30;;
78860;SDS011;68211;45.774;15.892;2023-04-24T03:39:42;5.22;;;3.60;;
78860;SDS011;68211;45.774;15.892;2023-04-24T03:42:09;4.73;;;3.47;;
78860;SDS011;68211;45.774;15.892;2023-04-24T03:44:36;3.78;;;3.47;;
78860;SDS011;68211;45.774;15.892;2023-04-24T03:47:02;4.32;;;3.33;;
78860;SDS011;68211;45.774;15.892;2023-04-24T03:49:28;4.00;;;3.40;;
78860;SDS011;68211;45.774;15.892;2023-04-24T03:51:55;7.65;;;3.30;;
78860;SDS011;68211;45.774;15.892;2023-04-24T03:54:21;3.42;;;3.13;;
78860;SDS011;68211;45.774;15.892;2023-04-24T03:56:49;3.75;;;3.42;;
78860;SDS011;68211;45.774;15.892;2023-04-24T03:59:15;3.38;;;3.17;;
78860;SDS011;68211;45.774;15.892;2023-04-24T04:01:42;3.53;;;3.22;;
78860;SDS011;68211;45.774;15.892;2023-04-24T04:04:09;4.90;;;3.50;;
78860;SDS011;68211;45.774;15.892;2023-04-24T04:06:36;3.75;;;3.22;;
78860;SDS011;68211;45.774;15.892;2023-04-24T04:09:02;4.22;;;3.45;;
78860;SDS011;68211;45.774;15.892;2023-04-24T04:11:29;4.40;;;3.15;;
78860;SDS011;68211;45.774;15.892;2023-04-24T04:13:57;5.25;;;3.30;;
78860;SDS011;68211;45.774;15.892;2023-04-24T04:16:23;3.40;;;3.10;;
78860;SDS011;68211;45.774;15.892;2023-04-24T04:18:49;3.97;;;3.50;;
78860;SDS011;68211;45.774;15.892;2023-04-24T04:21:16;5.60;;;3.50;;
78860;SDS011;68211;45.774;15.892;2023-04-24T04:23:42;3.70;;;3.40;;
78860;SDS011;68211;45.774;15.892;2023-04-24T04:26:09;3.92;;;3.55;;
78860;SDS011;68211;45.774;15.892;2023-04-24T04:28:35;3.40;;;3.20;;
78860;SDS011;68211;45.774;15.892;2023-04-24T04:31:03;5.00;;;3.30;;
78860;SDS011;68211;45.774;15.892;2023-04-24T04:33:29;5.45;;;3.53;;
78860;SDS011;68211;45.774;15.892;2023-04-24T04:35:56;3.75;;;3.45;;
78860;SDS011;68211;45.774;15.892;2023-04-24T04:38:22;4.47;;;3.63;;
78860;SDS011;68211;45.774;15.892;2023-04-24T04:40:48;4.80;;;3.55;;
78860;SDS011;68211;45.774;15.892;2023-04-24T04:43:15;3.92;;;3.58;;
78860;SDS011;68211;45.774;15.892;2023-04-24T04:45:41;3.85;;;3.47;;
78860;SDS011;68211;45.774;15.892;2023-04-24T04:48:09;4.38;;;3.22;;
78860;SDS011;68211;45.774;15.892;2023-04-24T04:50:36;4.80;;;3.30;;
78860;SDS011;68211;45.774;15.892;2023-04-24T04:53:02;3.60;;;3.30;;
78860;SDS011;68211;45.774;15.892;2023-04-24T04:55:28;3.72;;;3.42;;
78860;SDS011;68211;45.774;15.892;2023-04-24T04:57:55;4.15;;;3.65;;
78860;SDS011;68211;45.774;15.892;2023-04-24T05:00:21;5.53;;;3.20;;
78860;SDS011;68211;45.774;15.892;2023-04-24T05:02:48;3.42;;;3.20;;
78860;SDS011;68211;45.774;15.892;2023-04-24T05:05:16;3.95;;;3.10;;
78860;SDS011;68211;45.774;15.892;2023-04-24T05:07:42;4.05;;;3.30;;
78860;SDS011;68211;45.774;15.892;2023-04-24T05:10:09;5.95;;;3.10;;
78860;SDS011;68211;45.774;15.892;2023-04-24T05:12:37;3.45;;;3.13;;
78860;SDS011;68211;45.774;15.892;2023-04-24T05:15:03;3.80;;;3.38;;
78860;SDS011;68211;45.774;15.892;2023-04-24T05:17:30;3.33;;;3.10;;
78860;SDS011;68211;45.774;15.892;2023-04-24T05:19:56;6.05;;;3.53;;
78860;SDS011;68211;45.774;15.892;2023-04-24T05:22:24;4.25;;;3.83;;
78860;SDS011;68211;45.774;15.892;2023-04-24T05:24:50;6.30;;;3.22;;
78860;SDS011;68211;45.774;15.892;2023-04-24T05:27:17;10.23;;;4.00;;
78860;SDS011;68211;45.774;15.892;2023-04-24T05:29:43;7.95;;;3.92;;
78860;SDS011;68211;45.774;15.892;2023-04-24T05:32:10;7.10;;;3.63;;
78860;SDS011;68211;45.774;15.892;2023-04-24T05:34:37;7.97;;;3.67;;
78860;SDS011;68211;45.774;15.892;2023-04-24T05:37:03;13.05;;;4.20;;
78860;SDS011;68211;45.774;15.892;2023-04-24T05:39:31;10.10;;;4.45;;
78860;SDS011;68211;45.774;15.892;2023-04-24T05:41:57;7.78;;;3.75;;
78860;SDS011;68211;45.774;15.892;2023-04-24T05:44:24;13.15;;;4.70;;
78860;SDS011;68211;45.774;15.892;2023-04-24T05:46:50;10.30;;;4.80;;
78860;SDS011;68211;45.774;15.892;2023-04-24T05:49:17;10.70;;;4.72;;
78860;SDS011;68211;45.774;15.892;2023-04-24T05:51:43;11.95;;;5.72;;
78860;SDS011;68211;45.774;15.892;2023-04-24T05:54:09;15.00;;;6.25;;
78860;SDS011;68211;45.774;15.892;2023-04-24T05:56:37;9.85;;;5.70;;
78860;SDS011;68211;45.774;15.892;2023-04-24T05:59:05;9.88;;;5.63;;
78860;SDS011;68211;45.774;15.892;2023-04-24T06:01:31;10.48;;;5.43;;
78860;SDS011;68211;45.774;15.892;2023-04-24T06:03:57;10.55;;;5.63;;
78860;SDS011;68211;45.774;15.892;2023-04-24T06:06:24;6.68;;;5.57;;
78860;SDS011;68211;45.774;15.892;2023-04-24T06:08:50;10.13;;;5.10;;
78860;SDS011;68211;45.774;15.892;2023-04-24T06:11:17;9.93;;;5.82;;
78860;SDS011;68211;45.774;15.892;2023-04-24T06:13:45;10.30;;;5.22;;
78860;SDS011;68211;45.774;15.892;2023-04-24T06:16:11;7.60;;;5.03;;
78860;SDS011;68211;45.774;15.892;2023-04-24T06:18:38;6.95;;;5.28;;
78860;SDS011;68211;45.774;15.892;2023-04-24T06:21:04;8.70;;;5.45;;
78860;SDS011;68211;45.774;15.892;2023-04-24T06:23:31;9.25;;;6.03;;
78860;SDS011;68211;45.774;15.892;2023-04-24T06:25:57;10.52;;;5.68;;
78860;SDS011;68211;45.774;15.892;2023-04-24T06:28:24;10.45;;;5.65;;
78860;SDS011;68211;45.774;15.892;2023-04-24T06:30:51;6.40;;;5.55;;
78860;SDS011;68211;45.774;15.892;2023-04-24T06:33:18;6.95;;;5.50;;
78860;SDS011;68211;45.774;15.892;2023-04-24T06:35:48;8.48;;;5.30;;
78860;SDS011;68211;45.774;15.892;2023-04-24T06:38:14;8.02;;;5.63;;
78860;SDS011;68211;45.774;15.892;2023-04-24T06:40:41;8.07;;;6.10;;
78860;SDS011;68211;45.774;15.892;2023-04-24T06:43:07;6.90;;;5.45;;
78860;SDS011;68211;45.774;15.892;2023-04-24T06:45:33;9.90;;;5.82;;
78860;SDS011;68211;45.774;15.892;2023-04-24T06:48:01;9.82;;;5.57;;
78860;SDS011;68211;45.774;15.892;2023-04-24T06:50:28;8.88;;;5.88;;
78860;SDS011;68211;45.774;15.892;2023-04-24T06:52:54;9.23;;;5.63;;
78860;SDS011;68211;45.774;15.892;2023-04-24T06:55:21;9.00;;;5.40;;
78860;SDS011;68211;45.774;15.892;2023-04-24T06:57:47;6.35;;;5.30;;
78860;SDS011;68211;45.774;15.892;2023-04-24T07:00:14;9.80;;;5.60;;
78860;SDS011;68211;45.774;15.892;2023-04-24T07:02:40;8.07;;;5.63;;
78860;SDS011;68211;45.774;15.892;2023-04-24T07:05:08;5.97;;;5.30;;
78860;SDS011;68211;45.774;15.892;2023-04-24T07:07:35;8.27;;;5.82;;
78860;SDS011;68211;45.774;15.892;2023-04-24T07:10:01;8.25;;;5.85;;
78860;SDS011;68211;45.774;15.892;2023-04-24T07:12:27;6.70;;;5.90;;
78860;SDS011;68211;45.774;15.892;2023-04-24T07:14:54;7.65;;;6.00;;
78860;SDS011;68211;45.774;15.892;2023-04-24T07:17:20;7.85;;;5.95;;
78860;SDS011;68211;45.774;15.892;2023-04-24T07:19:47;8.48;;;6.47;;
78860;SDS011;68211;45.774;15.892;2023-04-24T07:22:15;7.38;;;6.68;;
78860;SDS011;68211;45.774;15.892;2023-04-24T07:24:41;10.65;;;6.90;;
78860;SDS011;68211;45.774;15.892;2023-04-24T07:27:08;11.85;;;7.00;;
78860;SDS011;68211;45.774;15.892;2023-04-24T07:29:34;12.25;;;6.88;;
78860;SDS011;68211;45.774;15.892;2023-04-24T07:32:00;7.05;;;6.43;;
78860;SDS011;68211;45.774;15.892;2023-04-24T07:34:29;11.37;;;7.40;;
78860;SDS011;68211;45.774;15.892;2023-04-24T07:36:55;22.35;;;10.52;;
78860;SDS011;68211;45.774;15.892;2023-04-24T07:39:23;19.45;;;9.98;;
78860;SDS011;68211;45.774;15.892;2023-04-24T07:41:50;13.32;;;7.93;;
78860;SDS011;68211;45.774;15.892;2023-04-24T07:44:16;8.32;;;7.20;;
78860;SDS011;68211;45.774;15.892;2023-04-24T07:46:45;7.97;;;6.93;;
78860;SDS011;68211;45.774;15.892;2023-04-24T07:49:13;15.02;;;7.15;;
78860;SDS011;68211;45.774;15.892;2023-04-24T07:51:42;14.63;;;8.20;;
78860;SDS011;68211;45.774;15.892;2023-04-24T07:54:08;12.85;;;6.53;;
78860;SDS011;68211;45.774;15.892;2023-04-24T07:56:36;9.07;;;6.75;;
78860;SDS011;68211;45.774;15.892;2023-04-24T08:01:32;8.00;;;6.20;;
78860;SDS011;68211;45.774;15.892;2023-04-24T08:03:58;8.80;;;6.25;;
78860;SDS011;68211;45.774;15.892;2023-04-24T08:06:25;6.45;;;5.47;;
78860;SDS011;68211;45.774;15.892;2023-04-24T08:09:03;12.90;;;5.63;;
78860;SDS011;68211;45.774;15.892;2023-04-24T08:14:43;7.15;;;5.47;;
78860;SDS011;68211;45.774;15.892;2023-04-24T08:17:32;5.47;;;4.97;;
78860;SDS011;68211;45.774;15.892;2023-04-24T08:20:17;6.13;;;5.20;;
78860;SDS011;68211;45.774;15.892;2023-04-24T08:22:45;7.13;;;5.25;;
78860;SDS011;68211;45.774;15.892;2023-04-24T08:25:13;7.65;;;4.93;;
78860;SDS011;68211;45.774;15.892;2023-04-24T08:27:50;5.70;;;5.20;;
78860;SDS011;68211;45.774;15.892;2023-04-24T08:30:22;6.80;;;5.10;;
78860;SDS011;68211;45.774;15.892;2023-04-24T08:33:02;6.75;;;4.65;;
78860;SDS011;68211;45.774;15.892;2023-04-24T08:35:29;11.68;;;5.20;;
78860;SDS011;68211;45.774;15.892;2023-04-24T08:38:05;6.55;;;5.15;;
78860;SDS011;68211;45.774;15.892;2023-04-24T08:40:57;5.70;;;5.03;;
78860;SDS011;68211;45.774;15.892;2023-04-24T09:16:32;15.63;;;10.20;;
78860;SDS011;68211;45.774;15.892;2023-04-24T09:19:28;13.02;;;10.07;;
78860;SDS011;68211;45.774;15.892;2023-04-24T09:22:17;12.65;;;8.85;;
78860;SDS011;68211;45.774;15.892;2023-04-24T09:25:07;9.95;;;7.45;;
78860;SDS011;68211;45.774;15.892;2023-04-24T09:27:46;9.25;;;7.43;;
78860;SDS011;68211;45.774;15.892;2023-04-24T09:30:32;12.35;;;8.73;;
78860;SDS011;68211;45.774;15.892;2023-04-24T09:33:14;11.00;;;7.95;;
78860;SDS011;68211;45.774;15.892;2023-04-24T09:35:49;12.30;;;8.80;;
78860;SDS011;68211;45.774;15.892;2023-04-24T09:38:24;13.13;;;7.88;;
78860;SDS011;68211;45.774;15.892;2023-04-24T09:41:04;14.48;;;8.38;;
78860;SDS011;68211;45.774;15.892;2023-04-24T09:43:34;11.45;;;8.18;;
78860;SDS011;68211;45.774;15.892;2023-04-24T09:46:36;12.80;;;8.20;;
78860;SDS011;68211;45.774;15.892;2023-04-24T10:04:03;6.97;;;4.30;;
78860;SDS011;68211;45.774;15.892;2023-04-24T10:06:40;5.30;;;4.80;;
78860;SDS011;68211;45.774;15.892;2023-04-24T10:09:15;6.70;;;5.20;;
78860;SDS011;68211;45.774;15.892;2023-04-24T10:11:47;6.05;;;3.85;;
78860;SDS011;68211;45.774;15.892;2023-04-24T10:14:23;6.43;;;4.00;;
78860;SDS011;68211;45.774;15.892;2023-04-24T10:17:21;7.78;;;3.78;;
78860;SDS011;68211;45.774;15.892;2023-04-24T10:22:42;5.05;;;3.75;;
78860;SDS011;68211;45.774;15.892;2023-04-24T10:25:29;7.38;;;3.72;;
78860;SDS011;68211;45.774;15.892;2023-04-24T10:28:15;8.48;;;4.05;;
78860;SDS011;68211;45.774;15.892;2023-04-24T10:30:54;8.95;;;3.97;;
78860;SDS011;68211;45.774;15.892;2023-04-24T10:33:27;6.70;;;4.20;;
78860;SDS011;68211;45.774;15.892;2023-04-24T10:35:59;8.18;;;4.13;;
78860;SDS011;68211;45.774;15.892;2023-04-24T10:38:32;7.75;;;4.50;;
78860;SDS011;68211;45.774;15.892;2023-04-24T10:41:10;8.63;;;4.93;;
78860;SDS011;68211;45.774;15.892;2023-04-24T10:43:42;7.80;;;4.45;;
78860;SDS011;68211;45.774;15.892;2023-04-24T10:46:26;6.40;;;4.20;;
78860;SDS011;68211;45.774;15.892;2023-04-24T10:49:06;8.60;;;4.55;;
78860;SDS011;68211;45.774;15.892;2023-04-24T10:51:47;6.28;;;4.53;;
78860;SDS011;68211;45.774;15.892;2023-04-24T10:54:28;10.27;;;5.05;;
78860;SDS011;68211;45.774;15.892;2023-04-24T10:57:25;9.38;;;4.63;;
78860;SDS011;68211;45.774;15.892;2023-04-24T11:02:36;10.98;;;4.60;;
78860;SDS011;68211;45.774;15.892;2023-04-24T11:05:03;7.05;;;4.05;;
78860;SDS011;68211;45.774;15.892;2023-04-24T11:07:29;6.13;;;4.10;;
78860;SDS011;68211;45.774;15.892;2023-04-24T11:09:58;12.30;;;4.80;;
78860;SDS011;68211;45.774;15.892;2023-04-24T11:12:25;7.32;;;4.10;;
78860;SDS011;68211;45.774;15.892;2023-04-24T11:14:59;6.45;;;3.75;;
78860;SDS011;68211;45.774;15.892;2023-04-24T11:17:28;9.00;;;5.32;;
78860;SDS011;68211;45.774;15.892;2023-04-24T11:19:59;6.53;;;4.65;;
78860;SDS011;68211;45.774;15.892;2023-04-24T11:22:41;6.03;;;4.32;;
78860;SDS011;68211;45.774;15.892;2023-04-24T11:31:36;11.65;;;5.00;;
78860;SDS011;68211;45.774;15.892;2023-04-24T11:34:09;13.48;;;6.47;;
78860;SDS011;68211;45.774;15.892;2023-04-24T11:36:36;8.43;;;5.30;;
78860;SDS011;68211;45.774;15.892;2023-04-24T11:39:03;10.75;;;5.30;;
78860;SDS011;68211;45.774;15.892;2023-04-24T11:41:30;6.65;;;4.80;;
78860;SDS011;68211;45.774;15.892;2023-04-24T11:47:23;9.00;;;5.35;;
78860;SDS011;68211;45.774;15.892;2023-04-24T11:53:36;9.20;;;5.70;;
78860;SDS011;68211;45.774;15.892;2023-04-24T11:56:22;14.25;;;6.63;;
78860;SDS011;68211;45.774;15.892;2023-04-24T11:59:22;11.48;;;6.95;;
78860;SDS011;68211;45.774;15.892;2023-04-24T12:02:23;13.00;;;7.60;;
78860;SDS011;68211;45.774;15.892;2023-04-24T12:05:31;16.98;;;7.35;;
78860;SDS011;68211;45.774;15.892;2023-04-24T12:12:33;13.40;;;8.40;;
78860;SDS011;68211;45.774;15.892;2023-04-24T12:43:12;10.57;;;5.63;;
78860;SDS011;68211;45.774;15.892;2023-04-24T12:45:57;9.35;;;5.05;;
78860;SDS011;68211;45.774;15.892;2023-04-24T12:48:32;6.63;;;4.57;;
78860;SDS011;68211;45.774;15.892;2023-04-24T12:51:26;9.23;;;4.95;;
78860;SDS011;68211;45.774;15.892;2023-04-24T12:54:06;6.82;;;4.72;;
78860;SDS011;68211;45.774;15.892;2023-04-24T12:57:05;10.25;;;5.18;;
78860;SDS011;68211;45.774;15.892;2023-04-24T12:59:35;12.50;;;5.87;;
78860;SDS011;68211;45.774;15.892;2023-04-24T13:02:14;10.48;;;6.13;;
78860;SDS011;68211;45.774;15.892;2023-04-24T13:07:46;8.73;;;5.30;;
78860;SDS011;68211;45.774;15.892;2023-04-24T13:10:15;12.25;;;5.43;;
78860;SDS011;68211;45.774;15.892;2023-04-24T13:12:51;8.95;;;6.40;;
78860;SDS011;68211;45.774;15.892;2023-04-24T13:15:31;8.10;;;5.30;;
78860;SDS011;68211;45.774;15.892;2023-04-24T13:18:00;8.40;;;5.45;;
78860;SDS011;68211;45.774;15.892;2023-04-24T13:20:49;12.82;;;6.50;;
78860;SDS011;68211;45.774;15.892;2023-04-24T13:30:28;15.77;;;6.68;;
78860;SDS011;68211;45.774;15.892;2023-04-24T13:33:30;8.77;;;6.18;;
78860;SDS011;68211;45.774;15.892;2023-04-24T14:27:44;8.20;;;5.90;;
78860;SDS011;68211;45.774;15.892;2023-04-24T14:30:10;9.10;;;6.25;;
78860;SDS011;68211;45.774;15.892;2023-04-24T14:32:40;14.68;;;6.00;;
78860;SDS011;68211;45.774;15.892;2023-04-24T14:35:12;14.65;;;7.05;;
78860;SDS011;68211;45.774;15.892;2023-04-24T14:37:48;15.50;;;7.85;;
78860;SDS011;68211;45.774;15.892;2023-04-24T14:40:14;19.15;;;9.57;;
78860;SDS011;68211;45.774;15.892;2023-04-24T14:42:48;21.35;;;9.30;;
78860;SDS011;68211;45.774;15.892;2023-04-24T14:45:15;14.20;;;8.88;;
78860;SDS011;68211;45.774;15.892;2023-04-24T14:51:00;15.27;;;9.63;;
78860;SDS011;68211;45.774;15.892;2023-04-24T14:54:03;23.40;;;10.18;;
78860;SDS011;68211;45.774;15.892;2023-04-24T15:15:50;23.75;;;13.95;;
78860;SDS011;68211;45.774;15.892;2023-04-24T15:40:56;23.65;;;12.70;;
78860;SDS011;68211;45.774;15.892;2023-04-24T15:44:20;23.70;;;13.30;;
78860;SDS011;68211;45.774;15.892;2023-04-24T17:34:18;12.68;;;7.45;;
78860;SDS011;68211;45.774;15.892;2023-04-24T17:42:17;26.80;;;13.00;;
78860;SDS011;68211;45.774;15.892;2023-04-24T17:45:23;36.58;;;14.65;;
78860;SDS011;68211;45.774;15.892;2023-04-24T18:09:37;57.58;;;12.82;;
78860;SDS011;68211;45.774;15.892;2023-04-24T18:14:35;27.00;;;10.32;;
78860;SDS011;68211;45.774;15.892;2023-04-24T18:17:02;34.40;;;14.98;;
78860;SDS011;68211;45.774;15.892;2023-04-24T18:19:30;64.38;;;29.95;;
78860;SDS011;68211;45.774;15.892;2023-04-24T18:21:56;61.75;;;29.60;;
78860;SDS011;68211;45.774;15.892;2023-04-24T18:24:23;52.40;;;26.55;;
78860;SDS011;68211;45.774;15.892;2023-04-24T18:26:53;43.15;;;20.65;;
78860;SDS011;68211;45.774;15.892;2023-04-24T18:29:20;27.87;;;15.13;;
78860;SDS011;68211;45.774;15.892;2023-04-24T18:31:47;30.58;;;14.23;;
78860;SDS011;68211;45.774;15.892;2023-04-24T18:34:14;34.70;;;13.85;;
78860;SDS011;68211;45.774;15.892;2023-04-24T18:36:43;30.52;;;14.10;;
78860;SDS011;68211;45.774;15.892;2023-04-24T18:39:28;22.33;;;11.45;;
78860;SDS011;68211;45.774;15.892;2023-04-24T18:41:59;12.32;;;6.22;;
78860;SDS011;68211;45.774;15.892;2023-04-24T18:44:50;7.95;;;3.80;;
78860;SDS011;68211;45.774;15.892;2023-04-24T18:47:21;7.22;;;3.42;;
78860;SDS011;68211;45.774;15.892;2023-04-24T18:49:48;4.57;;;2.97;;
78860;SDS011;68211;45.774;15.892;2023-04-24T18:52:18;4.00;;;2.47;;
78860;SDS011;68211;45.774;15.892;2023-04-24T18:54:44;8.02;;;2.30;;
78860;SDS011;68211;45.774;15.892;2023-04-24T18:57:19;8.65;;;2.60;;
78860;SDS011;68211;45.774;15.892;2023-04-24T18:59:45;5.80;;;2.38;;
78860;SDS011;68211;45.774;15.892;2023-04-24T19:02:17;6.60;;;2.58;;
78860;SDS011;68211;45.774;15.892;2023-04-24T19:04:43;11.68;;;2.65;;
78860;SDS011;68211;45.774;15.892;2023-04-24T19:07:10;3.75;;;2.63;;
78860;SDS011;68211;45.774;15.892;2023-04-24T19:09:36;10.07;;;2.83;;
78860;SDS011;68211;45.774;15.892;2023-04-24T19:12:05;4.40;;;2.35;;
78860;SDS011;68211;45.774;15.892;2023-04-24T19:14:36;4.97;;;2.90;;
78860;SDS011;68211;45.774;15.892;2023-04-24T19:17:03;6.57;;;3.00;;
78860;SDS011;68211;45.774;15.892;2023-04-24T19:19:29;6.03;;;3.53;;
78860;SDS011;68211;45.774;15.892;2023-04-24T19:21:55;9.80;;;3.60;;
78860;SDS011;68211;45.774;15.892;2023-04-24T19:24:25;6.72;;;4.97;;
78860;SDS011;68211;45.774;15.892;2023-04-24T19:26:54;9.85;;;4.28;;
78860;SDS011;68211;45.774;15.892;2023-04-24T19:29:21;10.02;;;4.60;;
78860;SDS011;68211;45.774;15.892;2023-04-24T19:31:48;6.95;;;4.10;;
78860;SDS011;68211;45.774;15.892;2023-04-24T19:34:15;9.75;;;4.55;;
78860;SDS011;68211;45.774;15.892;2023-04-24T19:36:41;10.73;;;4.82;;
78860;SDS011;68211;45.774;15.892;2023-04-24T19:39:08;15.80;;;5.18;;
78860;SDS011;68211;45.774;15.892;2023-04-24T19:41:34;15.50;;;4.90;;
78860;SDS011;68211;45.774;15.892;2023-04-24T19:44:01;8.05;;;3.67;;
78860;SDS011;68211;45.774;15.892;2023-04-24T19:46:27;10.25;;;4.00;;
78860;SDS011;68211;45.774;15.892;2023-04-24T19:48:55;8.48;;;3.72;;
78860;SDS011;68211;45.774;15.892;2023-04-24T19:51:21;8.43;;;3.70;;
78860;SDS011;68211;45.774;15.892;2023-04-24T19:53:48;8.85;;;4.07;;
78860;SDS011;68211;45.774;15.892;2023-04-24T19:56:15;4.95;;;3.20;;
78860;SDS011;68211;45.774;15.892;2023-04-24T19:58:41;7.05;;;3.58;;
78860;SDS011;68211;45.774;15.892;2023-04-24T20:01:08;12.00;;;3.55;;
78860;SDS011;68211;45.774;15.892;2023-04-24T20:03:34;4.10;;;3.08;;
78860;SDS011;68211;45.774;15.892;2023-04-24T20:06:02;4.88;;;3.30;;
78860;SDS011;68211;45.774;15.892;2023-04-24T20:08:29;5.78;;;3.45;;
78860;SDS011;68211;45.774;15.892;2023-04-24T20:10:55;6.38;;;3.33;;
78860;SDS011;68211;45.774;15.892;2023-04-24T20:13:22;5.82;;;3.67;;
78860;SDS011;68211;45.774;15.892;2023-04-24T20:15:48;6.03;;;3.42;;
78860;SDS011;68211;45.774;15.892;2023-04-24T20:18:14;6.53;;;3.00;;
78860;SDS011;68211;45.774;15.892;2023-04-24T20:20:41;5.38;;;3.13;;
78860;SDS011;68211;45.774;15.892;2023-04-24T20:23:09;6.80;;;3.17;;
78860;SDS011;68211;45.774;15.892;2023-04-24T20:25:35;5.75;;;3.13;;
78860;SDS011;68211;45.774;15.892;2023-04-24T20:28:02;3.00;;;2.70;;
78860;SDS011;68211;45.774;15.892;2023-04-24T20:30:28;5.57;;;3.17;;
78860;SDS011;68211;45.774;15.892;2023-04-24T20:32:55;8.55;;;3.40;;
78860;SDS011;68211;45.774;15.892;2023-04-24T20:35:21;6.20;;;2.95;;
78860;SDS011;68211;45.774;15.892;2023-04-24T20:37:48;7.20;;;3.50;;